createdAt,value
2023-02-19T00:01:18.337Z,99523.80
2023-02-19T00:06:25.646Z,99518.20
2023-02-19T00:12:51.281Z,99519.60
2023-02-19T00:17:55.066Z,99518.80
2023-02-19T00:22:58.811Z,99517.00
2023-02-19T00:28:02.631Z,99521.20
2023-02-19T00:33:06.367Z,99530.40
2023-02-19T00:38:19.224Z,99530.60
2023-02-19T00:43:23.076Z,99519.60
2023-02-19T00:48:26.761Z,99517.60
2023-02-19T00:53:30.519Z,99520.80
2023-02-19T00:58:34.297Z,99523.00
2023-02-19T01:04:06.415Z,99535.40
2023-02-19T01:10:31.997Z,99536.00
2023-02-19T01:15:36.070Z,99546.60
2023-02-19T01:27:50.495Z,99550.00
2023-02-19T01:40:25.196Z,99533.80
2023-02-19T01:46:36.233Z,99539.80
2023-02-19T01:51:47.893Z,99533.00
2023-02-19T01:56:52.760Z,99524.20
2023-02-19T02:01:56.842Z,99528.60
2023-02-19T02:07:24.799Z,99537.60
2023-02-19T02:12:28.416Z,99531.60
2023-02-19T02:17:44.106Z,99531.00
2023-02-19T02:23:28.800Z,99525.20
2023-02-19T02:28:44.332Z,99517.40
2023-02-19T02:33:58.483Z,99525.60
2023-02-19T02:39:07.621Z,99527.60
2023-02-19T02:44:12.060Z,99535.20
2023-02-19T02:49:24.329Z,99541.00
2023-02-19T02:55:44.113Z,99541.20
2023-02-19T03:01:15.600Z,99528.00
2023-02-19T03:06:24.453Z,99528.20
2023-02-19T03:13:01.820Z,99526.80
2023-02-19T03:18:29.724Z,99524.40
2023-02-19T03:30:50.419Z,99514.40
2023-02-19T03:36:01.421Z,99518.80
2023-02-19T03:41:32.383Z,99513.60
2023-02-19T03:46:42.512Z,99516.80
2023-02-19T03:51:58.527Z,99521.00
2023-02-19T03:57:30.133Z,99515.60
2023-02-19T04:03:00.357Z,99514.40
2023-02-19T04:08:16.371Z,99514.40
2023-02-19T04:14:03.345Z,99507.20
2023-02-19T04:19:14.587Z,99507.40
2023-02-19T04:24:37.929Z,99508.20
2023-02-19T04:29:53.997Z,99505.60
2023-02-19T04:34:57.716Z,99507.20
2023-02-19T04:40:17.007Z,99497.60
2023-02-19T04:45:20.629Z,99498.00
2023-02-19T04:50:24.647Z,99496.80
2023-02-19T04:57:10.926Z,99497.80
2023-02-19T05:02:40.260Z,99495.80
2023-02-19T05:17:53.410Z,99487.20
2023-02-19T05:22:57.651Z,99487.20
2023-02-19T05:28:18.512Z,99485.80
2023-02-19T05:33:25.673Z,99488.80
2023-02-19T05:38:29.198Z,99480.20
2023-02-19T06:02:54.847Z,99497.60
2023-02-19T06:08:03.686Z,99504.60
2023-02-19T06:18:29.709Z,99513.40
2023-02-19T06:23:33.718Z,99515.40
2023-02-19T06:28:39.470Z,99525.00
2023-02-19T06:33:44.103Z,99530.80
2023-02-19T06:39:16.190Z,99534.20
2023-02-19T06:44:20.043Z,99530.40
2023-02-19T06:49:24.422Z,99541.40
2023-02-19T06:54:28.187Z,99547.00
2023-02-19T06:59:31.911Z,99544.00
2023-02-19T07:04:35.671Z,99551.60
2023-02-19T07:09:39.489Z,99557.60
2023-02-19T07:14:43.326Z,99562.80
2023-02-19T07:19:47.044Z,99568.00
2023-02-19T07:24:50.674Z,99577.00
2023-02-19T07:30:20.222Z,99586.20
2023-02-19T07:35:24.025Z,99592.40
2023-02-19T07:40:27.772Z,99591.80
2023-02-19T07:45:31.441Z,99602.20
2023-02-19T07:50:35.469Z,99602.40
2023-02-19T07:55:39.323Z,99597.80
2023-02-19T08:00:43.463Z,99600.40
2023-02-19T08:05:47.179Z,99605.40
2023-02-19T08:11:09.816Z,99605.60
2023-02-19T08:16:26.585Z,99618.40
2023-02-19T08:21:37.422Z,99633.00
2023-02-19T08:26:41.373Z,99637.20
2023-02-19T08:31:45.193Z,99639.00
2023-02-19T08:36:49.109Z,99640.40
2023-02-19T08:41:53.083Z,99641.60
2023-02-19T08:46:56.936Z,99655.40
2023-02-19T08:59:09.254Z,99667.00
2023-02-19T09:04:13.615Z,99670.40
2023-02-19T09:09:17.199Z,99670.80
2023-02-19T09:14:34.116Z,99677.80
2023-02-19T09:19:38.627Z,99681.20
2023-02-19T09:25:37.180Z,99675.20
2023-02-19T09:31:57.565Z,99669.40
2023-02-19T09:44:37.879Z,99683.60
2023-02-19T10:04:55.237Z,99700.40
2023-02-19T10:26:32.348Z,99723.00
2023-02-19T10:32:30.891Z,99721.20
2023-02-19T10:37:53.797Z,99725.80
2023-02-19T10:43:04.968Z,99725.40
2023-02-19T10:48:31.069Z,99723.00
2023-02-19T10:53:48.039Z,99729.00
2023-02-19T10:58:52.425Z,99726.00
2023-02-19T11:10:59.110Z,99746.20
2023-02-19T11:16:03.005Z,99744.80
2023-02-19T11:21:58.358Z,99747.80
2023-02-19T11:27:07.605Z,99756.80
2023-02-19T11:32:32.727Z,99763.40
2023-02-19T11:37:36.465Z,99768.20
2023-02-19T11:43:10.372Z,99779.60
2023-02-19T11:57:38.951Z,99799.00
2023-02-19T12:03:02.548Z,99794.20
2023-02-19T12:09:00.309Z,99791.20
2023-02-19T12:21:54.767Z,99793.20
2023-02-19T12:27:35.609Z,99805.00
2023-02-19T12:33:37.706Z,99820.40
2023-02-19T12:39:18.616Z,99831.60
2023-02-19T13:00:44.831Z,99798.80
2023-02-19T13:06:31.189Z,99805.60
2023-02-19T13:11:46.777Z,99818.80
2023-02-19T13:16:59.144Z,99881.80
2023-02-19T13:22:58.127Z,99883.20
2023-02-19T13:28:35.386Z,99846.20
2023-02-19T13:43:00.550Z,99892.20
2023-02-19T13:48:25.764Z,99894.20
2023-02-19T13:53:52.104Z,99896.20
2023-02-19T13:59:41.252Z,99896.60
2023-02-19T14:05:08.301Z,99906.60
2023-02-19T14:10:52.021Z,99916.60
2023-02-19T14:15:56.987Z,99920.40
2023-02-19T14:28:42.128Z,99914.40
2023-02-19T14:33:54.037Z,99922.40
2023-02-19T14:39:19.340Z,99930.20
2023-02-19T14:44:31.088Z,99940.00
2023-02-19T14:49:50.359Z,99942.00
2023-02-19T14:55:01.162Z,99953.40
2023-02-19T15:00:48.496Z,99956.80
2023-02-19T15:06:32.287Z,99963.20
2023-02-19T15:11:37.923Z,99957.60
2023-02-19T15:16:43.313Z,99973.00
2023-02-19T15:43:44.746Z,100012.80
2023-02-19T15:49:33.651Z,100017.80
2023-02-19T15:55:00.509Z,100030.60
2023-02-19T16:09:23.298Z,100052.20
2023-02-19T16:22:22.893Z,100063.20
2023-02-19T16:45:00.169Z,100090.80
2023-02-19T16:53:27.289Z,100096.20
2023-02-19T16:58:39.916Z,100101.00
2023-02-19T17:04:53.306Z,100115.60
2023-02-19T17:10:06.423Z,100120.20
2023-02-19T17:16:40.393Z,100129.80
2023-02-19T17:21:54.122Z,100143.20
2023-02-19T17:29:43.568Z,100145.80
2023-02-19T17:49:47.546Z,100142.80
2023-02-19T17:54:54.185Z,100145.60
2023-02-19T18:00:02.454Z,100147.20
2023-02-19T18:05:29.541Z,100149.00
2023-02-19T18:10:33.253Z,100157.60
2023-02-19T18:15:43.237Z,100168.00
2023-02-19T18:21:15.317Z,100170.60
2023-02-19T18:26:41.499Z,100170.20
2023-02-19T18:31:45.288Z,100172.20
2023-02-19T18:51:17.572Z,100175.40
2023-02-19T19:03:42.501Z,100190.00
2023-02-19T19:08:46.666Z,100192.80
2023-02-19T19:13:50.736Z,100197.00
2023-02-19T19:18:55.772Z,100182.40
2023-02-19T19:23:59.773Z,100180.80
2023-02-19T19:29:31.744Z,100178.00
2023-02-19T19:34:35.674Z,100162.00
2023-02-19T19:39:49.563Z,100176.80
2023-02-19T19:44:54.441Z,100189.60
2023-02-19T19:50:26.986Z,100182.20
2023-02-19T19:55:34.607Z,100169.00
2023-02-19T20:00:44.184Z,100165.80
2023-02-19T20:07:16.528Z,100168.20
2023-02-19T20:12:46.613Z,100172.40
2023-02-19T20:17:51.136Z,100182.80
2023-02-19T20:23:27.389Z,100188.00
2023-02-19T20:28:32.681Z,100193.80
2023-02-19T20:35:18.989Z,100196.80
2023-02-19T20:48:30.305Z,100208.20
2023-02-19T20:53:35.456Z,100203.80
2023-02-19T21:00:15.915Z,100195.60
2023-02-19T21:06:12.396Z,100194.60
2023-02-19T21:11:16.322Z,100195.40
2023-02-19T21:16:45.675Z,100189.80
2023-02-19T21:21:49.367Z,100189.00
2023-02-19T21:28:14.897Z,100191.80
2023-02-19T21:33:19.031Z,100196.20
2023-02-19T21:38:22.912Z,100202.20
2023-02-19T21:43:29.706Z,100199.20
2023-02-19T21:48:34.030Z,100197.60
2023-02-19T21:53:39.662Z,100185.60
2023-02-19T21:59:15.664Z,100179.40
2023-02-19T22:04:45.266Z,100175.00
2023-02-19T22:11:11.224Z,100188.40
2023-02-19T22:16:15.576Z,100182.00
2023-02-19T22:28:39.127Z,100184.00
2023-02-19T22:34:26.342Z,100181.60
2023-02-19T22:39:35.690Z,100169.00
2023-02-19T22:44:43.306Z,100161.80
2023-02-19T22:49:47.154Z,100168.40
2023-02-19T22:54:52.978Z,100162.80
2023-02-19T22:59:56.587Z,100173.80
2023-02-19T23:05:08.747Z,100169.00
2023-02-19T23:10:37.264Z,100163.40
2023-02-19T23:16:12.177Z,100158.20
2023-02-19T23:22:06.420Z,100150.40
2023-02-19T23:34:24.839Z,100141.00
2023-02-19T23:40:46.175Z,100142.20
2023-02-19T23:45:50.738Z,100144.60
2023-02-19T23:52:21.809Z,100139.80
2023-02-19T23:57:25.477Z,100135.00
